Time;durP1;ratioP1;P1;durP2;ratioP2;P2;SDS_P1;SDS_P2;PMS_P1;PMS_P2;Temp;Humidity;BMP_temperature;BMP_pressure;BME280_temperature;BME280_humidity;BME280_pressure;Samples;Min_cycle;Max_cycle;Signal;HPM_P1;HPM_P2
2022/06/16 00:00:47;;;;;;;16.88;6.22;;;;;;;18.58;100.00;97863.22;5050121;28;20045;-57
2022/06/16 00:03:13;;;;;;;20.67;6.50;;;;;;;18.41;100.00;97861.81;5050951;28;20056;-56
2022/06/16 00:05:43;;;;;;;17.52;6.88;;;;;;;18.42;100.00;97850.31;5049771;28;20124;-56
2022/06/16 00:08:12;;;;;;;16.83;6.22;;;;;;;18.40;100.00;97852.22;5051467;28;20017;-56
2022/06/16 00:11:16;;;;;;;17.80;6.43;;;;;;;18.55;100.00;97850.22;5050519;28;20048;-56
2022/06/16 00:13:25;;;;;;;15.55;6.22;;;;;;;18.28;100.00;97872.44;5051492;28;20108;-56
2022/06/16 00:15:50;;;;;;;17.73;6.72;;;;;;;18.34;100.00;97865.88;5050338;28;20119;-57
2022/06/16 00:18:16;;;;;;;20.20;6.32;;;;;;;18.30;100.00;97861.78;5049159;28;20052;-57
2022/06/16 00:20:42;;;;;;;16.42;6.57;;;;;;;18.18;100.00;97860.91;5050145;28;20223;-56
2022/06/16 00:23:08;;;;;;;19.52;6.63;;;;;;;18.11;100.00;97857.03;5051737;28;20099;-55
2022/06/16 00:25:33;;;;;;;17.77;6.95;;;;;;;17.99;100.00;97863.22;5049264;28;20131;-56
2022/06/16 00:27:59;;;;;;;20.40;6.97;;;;;;;17.77;100.00;97869.19;5048975;28;20043;-58
2022/06/16 00:30:24;;;;;;;23.23;7.10;;;;;;;17.80;100.00;97853.16;5050844;28;20032;-58
2022/06/16 00:32:50;;;;;;;16.10;6.68;;;;;;;17.74;100.00;97859.72;5051402;28;20033;-56
2022/06/16 00:35:15;;;;;;;18.88;6.75;;;;;;;17.87;100.00;97857.88;5048387;28;20163;-57
2022/06/16 00:37:40;;;;;;;17.40;6.63;;;;;;;17.82;100.00;97865.25;5050211;28;20415;-57
2022/06/16 00:40:08;;;;;;;26.60;7.75;;;;;;;17.69;100.00;97872.38;5050208;28;20073;-57
2022/06/16 00:42:34;;;;;;;18.98;6.50;;;;;;;17.92;100.00;97863.69;5049918;28;20520;-57
2022/06/16 00:44:59;;;;;;;15.25;6.45;;;;;;;17.66;100.00;97872.59;5050523;28;20020;-56
2022/06/16 00:47:30;;;;;;;19.80;6.72;;;;;;;17.66;100.00;97867.31;5049999;28;20562;-58
2022/06/16 00:50:00;;;;;;;24.15;7.55;;;;;;;17.64;100.00;97858.69;5051892;28;20025;-56
2022/06/16 00:52:29;;;;;;;21.08;7.05;;;;;;;17.73;100.00;97858.84;5048418;28;20037;-56
2022/06/16 00:55:20;;;;;;;14.85;6.07;;;;;;;17.89;100.00;97863.88;5049079;28;20075;-56
2022/06/16 00:57:49;;;;;;;15.47;6.60;;;;;;;17.88;100.00;97867.50;5046388;28;20132;-55
2022/06/16 01:02:47;;;;;;;16.63;6.47;;;;;;;17.82;100.00;97862.63;5049715;28;20029;-56
2022/06/16 01:05:13;;;;;;;14.55;6.35;;;;;;;17.74;100.00;97864.97;5049329;28;20032;-55
2022/06/16 01:07:41;;;;;;;16.05;6.88;;;;;;;17.71;100.00;97873.13;5051729;28;20103;-55
2022/06/16 01:10:09;;;;;;;22.70;7.70;;;;;;;17.80;100.00;97861.88;5058254;28;20028;-55
2022/06/16 01:15:33;;;;;;;18.13;6.15;;;;;;;18.17;100.00;97864.50;5048907;28;20039;-59
2022/06/16 01:18:18;;;;;;;15.80;5.95;;;;;;;17.80;100.00;97869.81;5051004;28;20024;-54
2022/06/16 01:20:56;;;;;;;16.73;6.50;;;;;;;17.99;100.00;97863.22;5049867;28;20037;-56
2022/06/16 01:23:40;;;;;;;15.70;6.05;;;;;;;18.09;100.00;97869.50;5052145;28;20083;-54
2022/06/16 01:26:14;;;;;;;17.50;6.40;;;;;;;17.68;100.00;97875.97;5048668;28;20049;-55
2022/06/16 01:28:58;;;;;;;20.75;7.32;;;;;;;17.56;100.00;97877.69;5051438;28;20021;-57
2022/06/16 01:31:27;;;;;;;15.68;6.50;;;;;;;17.58;100.00;97875.78;5048691;28;20055;-55
2022/06/16 01:34:06;;;;;;;16.98;6.90;;;;;;;17.75;100.00;97874.56;5050609;28;20032;-55
2022/06/16 01:36:38;;;;;;;16.33;6.72;;;;;;;17.63;100.00;97881.59;5051982;28;20036;-56
2022/06/16 01:39:10;;;;;;;16.77;7.43;;;;;;;17.62;100.00;97871.13;5051136;28;20083;-55
2022/06/16 01:41:48;;;;;;;;;;;;;;;17.26;100.00;97880.69;5048985;28;20045;-57
2022/06/16 01:44:21;;;;;;;15.82;6.35;;;;;;;17.39;100.00;97878.91;5050895;28;19919;-55
2022/06/16 01:46:53;;;;;;;17.40;6.90;;;;;;;17.25;100.00;97866.69;5050469;28;20057;-56
2022/06/16 01:49:22;;;;;;;16.90;6.60;;;;;;;17.37;100.00;97878.16;5049842;28;20028;-55
2022/06/16 01:51:48;;;;;;;18.40;6.32;;;;;;;16.95;100.00;97874.94;5050481;28;20271;-55
2022/06/16 01:54:25;;;;;;;18.42;6.93;;;;;;;16.85;100.00;97876.50;5050580;28;20047;-55
2022/06/16 01:56:56;;;;;;;15.23;6.50;;;;;;;17.14;100.00;97872.69;5048907;28;20037;-55
2022/06/16 01:59:26;;;;;;;18.60;6.77;;;;;;;17.20;100.00;97871.44;5058359;28;20032;-56
2022/06/16 02:01:58;;;;;;;17.10;6.60;;;;;;;17.00;100.00;97867.56;5048440;28;20086;-56
2022/06/16 02:04:31;;;;;;;14.07;6.13;;;;;;;16.95;100.00;97869.69;5049557;28;20029;-56
2022/06/16 02:07:03;;;;;;;17.02;6.70;;;;;;;17.08;100.00;97862.59;5049359;28;20055;-56
2022/06/16 02:09:36;;;;;;;20.08;6.90;;;;;;;17.17;100.00;97869.03;5051509;28;20158;-56
2022/06/16 02:12:07;;;;;;;17.15;6.00;;;;;;;17.14;100.00;97862.16;5048090;28;20040;-55
2022/06/16 02:14:38;;;;;;;17.33;6.70;;;;;;;16.99;100.00;97867.66;5049420;28;20029;-55
2022/06/16 02:17:04;;;;;;;18.70;6.35;;;;;;;17.19;100.00;97858.38;5049383;28;20143;-55
2022/06/16 02:19:30;;;;;;;14.73;5.95;;;;;;;17.17;100.00;97865.53;5049867;28;20020;-55
2022/06/16 02:21:56;;;;;;;16.13;6.32;;;;;;;17.01;100.00;97861.34;5047046;28;20494;-56
2022/06/16 02:24:27;;;;;;;17.48;6.03;;;;;;;17.03;100.00;97864.69;5049151;28;20029;-57
2022/06/16 02:26:56;;;;;;;14.75;6.25;;;;;;;17.06;100.00;97868.94;5047019;28;20463;-55
2022/06/16 02:29:29;;;;;;;16.85;6.35;;;;;;;17.19;100.00;97858.38;5049336;28;20123;-55
2022/06/16 02:32:06;;;;;;;16.15;5.88;;;;;;;17.32;100.00;97851.28;5047679;28;20694;-55
2022/06/16 02:35:08;;;;;;;19.23;5.95;;;;;;;17.08;100.00;97852.06;5045555;28;20025;-55
2022/06/16 02:37:45;;;;;;;13.10;5.88;;;;;;;17.13;100.00;97844.69;5040881;28;20045;-56
2022/06/16 02:40:30;;;;;;;15.75;5.85;;;;;;;17.04;100.00;97840.06;5049832;28;20028;-56
2022/06/16 02:43:25;;;;;;;14.27;6.30;;;;;;;17.06;100.00;97839.94;5049721;28;20262;-54
2022/06/16 02:46:12;;;;;;;18.92;5.80;;;;;;;17.07;100.00;97834.53;5049895;28;20090;-56
2022/06/16 02:49:11;;;;;;;18.48;6.80;;;;;;;16.83;100.00;97842.38;5048374;28;20031;-55
2022/06/16 02:51:48;;;;;;;19.30;6.25;;;;;;;16.75;100.00;97845.50;5033925;28;20040;-56
2022/06/16 02:54:30;;;;;;;12.48;5.65;;;;;;;16.64;100.00;97842.78;5049319;28;20025;-56
2022/06/16 02:57:01;;;;;;;14.60;5.72;;;;;;;16.75;100.00;97832.34;5050458;28;20040;-56
2022/06/16 02:59:41;;;;;;;18.23;6.35;;;;;;;16.91;100.00;97833.97;5050442;28;20060;-55
2022/06/16 03:02:14;;;;;;;13.82;5.90;;;;;;;16.61;100.00;97827.16;5050044;28;20056;-54
2022/06/16 03:04:43;;;;;;;17.20;6.43;;;;;;;16.66;100.00;97835.59;5049766;28;20037;-56
2022/06/16 03:07:15;;;;;;;17.60;5.80;;;;;;;16.65;100.00;97839.19;5048702;28;20591;-56
2022/06/16 03:09:41;;;;;;;14.98;6.05;;;;;;;16.61;100.00;97835.06;5047573;28;20026;-54
2022/06/16 03:12:08;;;;;;;17.02;6.15;;;;;;;16.52;100.00;97838.31;5045824;28;20049;-55
2022/06/16 03:14:34;;;;;;;16.33;5.97;;;;;;;16.60;100.00;97845.69;5048827;28;20037;-54
2022/06/16 03:16:59;;;;;;;16.48;6.30;;;;;;;16.75;100.00;97844.66;5047373;28;20118;-55
2022/06/16 03:19:25;;;;;;;15.10;6.03;;;;;;;16.67;100.00;97834.66;5048089;28;20032;-55
2022/06/16 03:21:50;;;;;;;18.17;6.10;;;;;;;16.74;100.00;97830.66;5047476;28;20041;-54
2022/06/16 03:24:16;;;;;;;15.38;5.93;;;;;;;16.73;100.00;97834.22;5048534;28;20033;-56
2022/06/16 03:26:42;;;;;;;18.95;6.47;;;;;;;16.53;100.00;97829.50;5048626;28;20157;-55
2022/06/16 03:29:08;;;;;;;16.08;6.07;;;;;;;16.73;100.00;97830.78;5047932;28;20033;-55
2022/06/16 03:31:33;;;;;;;16.30;6.40;;;;;;;16.61;100.00;97839.50;5049063;28;20359;-55
2022/06/16 03:33:59;;;;;;;15.07;6.13;;;;;;;16.61;100.00;97837.69;5048305;28;20506;-55
2022/06/16 03:36:24;;;;;;;17.40;6.45;;;;;;;16.56;100.00;97845.09;5047979;28;20468;-56
2022/06/16 03:38:49;;;;;;;14.65;5.90;;;;;;;16.47;100.00;97837.78;5047302;28;20082;-55
2022/06/16 03:41:15;;;;;;;14.65;5.85;;;;;;;16.55;100.00;97846.03;5045835;28;20155;-56
2022/06/16 03:43:40;;;;;;;13.57;5.63;;;;;;;16.58;100.00;97848.47;5049743;28;20035;-56
2022/06/16 03:46:07;;;;;;;15.00;5.78;;;;;;;16.65;100.00;97833.94;5047928;28;20063;-55
2022/06/16 03:48:33;;;;;;;20.73;6.60;;;;;;;16.63;100.00;97841.06;5047300;28;20056;-55
2022/06/16 03:50:59;;;;;;;15.85;5.93;;;;;;;16.83;100.00;97841.53;5046907;28;20092;-56
2022/06/16 03:53:24;;;;;;;18.17;6.65;;;;;;;17.00;100.00;97841.22;5048529;28;20071;-60
2022/06/16 03:55:50;;;;;;;14.80;6.07;;;;;;;16.95;100.00;97841.53;5046727;28;20068;-56
2022/06/16 03:58:16;;;;;;;15.32;5.93;;;;;;;16.95;100.00;97840.69;5045737;28;20033;-55
2022/06/16 04:00:42;;;;;;;13.38;5.53;;;;;;;17.19;100.00;97842.56;5047870;28;20185;-55
2022/06/16 04:05:53;;;;;;;18.20;5.93;;;;;;;17.18;100.00;97843.50;5050811;28;20055;-55
2022/06/16 04:08:19;;;;;;;15.52;5.70;;;;;;;17.38;100.00;97848.19;5050985;28;20087;-55
2022/06/16 04:10:46;;;;;;;13.65;6.10;;;;;;;17.46;100.00;97850.28;5050251;28;20140;-55
2022/06/16 04:13:13;;;;;;;18.90;6.63;;;;;;;17.50;100.00;97857.06;5053214;28;20028;-56
2022/06/16 04:15:38;;;;;;;15.55;5.70;;;;;;;17.97;100.00;97846.66;5067511;28;20414;-55
2022/06/16 04:18:04;;;;;;;18.98;6.25;;;;;;;18.44;100.00;97852.84;5051284;28;20545;-56
2022/06/16 04:20:30;;;;;;;15.48;5.63;;;;;;;18.65;100.00;97853.81;5049197;28;20082;-56
2022/06/16 04:22:55;;;;;;;14.57;6.00;;;;;;;18.21;100.00;97858.03;5052878;28;20444;-55
2022/06/16 04:25:24;;;;;;;16.25;6.22;;;;;;;18.09;100.00;97858.97;5050954;28;20017;-56
2022/06/16 04:27:49;;;;;;;12.75;5.30;;;;;;;18.47;100.00;97860.50;5051253;28;20040;-57
2022/06/16 04:30:16;;;;;;;13.82;5.53;;;;;;;17.98;100.00;97858.91;5049058;28;20029;-57
2022/06/16 04:32:42;;;;;;;14.00;5.80;;;;;;;17.84;100.00;97860.72;5052920;28;20024;-56
2022/06/16 04:35:08;;;;;;;14.82;5.50;;;;;;;18.25;100.00;97869.19;5050043;28;20027;-55
2022/06/16 04:37:33;;;;;;;14.40;5.38;;;;;;;18.57;100.00;97864.16;5051072;28;20025;-56
2022/06/16 04:39:59;;;;;;;19.90;6.90;;;;;;;18.25;100.00;97870.06;5049952;28;20362;-57
2022/06/16 04:42:25;;;;;;;14.50;5.78;;;;;;;18.19;100.00;97862.56;5050707;28;20037;-57
2022/06/16 04:44:50;;;;;;;15.52;5.40;;;;;;;18.39;100.00;97871.66;5058994;28;20469;-55
2022/06/16 04:47:16;;;;;;;42.72;9.57;;;;;;;18.24;100.00;97872.81;5041477;28;20041;-56
2022/06/16 04:52:17;;;;;;;36.90;7.50;;;;;;;18.72;100.00;97863.94;5061172;22;20069;-54
2022/06/16 04:54:44;;;;;;;27.25;6.25;;;;;;;19.09;100.00;97869.06;5008457;28;20022;-54
2022/06/16 04:57:10;;;;;;;19.88;5.38;;;;;;;20.15;100.00;97869.38;5011480;28;20804;-53
2022/06/16 04:59:36;;;;;;;21.98;5.97;;;;;;;21.21;100.00;97870.25;5012910;28;20037;-56
2022/06/16 05:02:01;;;;;;;20.67;5.85;;;;;;;20.38;100.00;97869.28;5009249;28;20022;-54
2022/06/16 05:04:27;;;;;;;23.25;5.93;;;;;;;20.19;100.00;97864.69;5009154;28;20052;-55
2022/06/16 05:06:52;;;;;;;25.02;6.20;;;;;;;19.84;100.00;97858.66;5010685;28;20053;-54
2022/06/16 05:09:18;;;;;;;20.52;5.70;;;;;;;20.37;100.00;97862.31;5010798;28;20811;-56
2022/06/16 05:11:43;;;;;;;23.60;5.90;;;;;;;22.21;100.00;97863.22;5010037;28;20125;-55
2022/06/16 05:14:08;;;;;;;19.55;5.43;;;;;;;23.62;100.00;97866.00;4996888;28;20071;-55
2022/06/16 05:16:34;;;;;;;22.67;5.82;;;;;;;22.82;100.00;97873.53;5009576;28;20117;-56
2022/06/16 05:18:59;;;;;;;20.83;5.30;;;;;;;25.00;100.00;97869.25;5011263;28;20482;-55
2022/06/16 05:21:24;;;;;;;20.83;5.35;;;;;;;26.40;80.72;97872.44;5008621;28;20095;-56
2022/06/16 05:23:50;;;;;;;25.08;5.72;;;;;;;27.54;69.64;97870.63;5010435;28;20120;-55
2022/06/16 05:26:15;;;;;;;16.25;4.50;;;;;;;28.07;62.74;97871.72;5010656;28;20042;-55
2022/06/16 05:28:41;;;;;;;22.25;5.38;;;;;;;28.37;60.45;97869.97;5011532;28;20071;-55
2022/06/16 05:31:07;;;;;;;17.88;4.90;;;;;;;28.74;59.78;97872.91;5011046;28;20033;-56
2022/06/16 05:33:32;;;;;;;16.52;5.00;;;;;;;29.33;53.26;97872.97;5011958;28;20052;-54
2022/06/16 05:36:04;;;;;;;12.85;4.30;;;;;;;30.39;50.24;97867.22;5009580;28;20045;-56
2022/06/16 05:38:30;;;;;;;14.25;4.47;;;;;;;29.91;49.98;97872.28;5009775;28;20030;-55
2022/06/16 05:41:01;;;;;;;16.58;4.50;;;;;;;31.21;49.46;97873.91;5016554;28;20084;-53
2022/06/16 05:43:26;;;;;;;14.30;4.50;;;;;;;31.77;44.92;97874.81;5011101;28;20018;-54
2022/06/16 05:45:52;;;;;;;10.68;3.90;;;;;;;33.19;42.38;97873.75;5008983;28;20422;-56
2022/06/16 05:48:18;;;;;;;11.27;3.80;;;;;;;32.44;46.05;97882.06;5009570;28;20022;-54
2022/06/16 05:50:44;;;;;;;11.30;4.00;;;;;;;34.57;40.13;97882.53;5009520;28;20044;-54
2022/06/16 05:53:09;;;;;;;11.23;4.07;;;;;;;31.38;45.31;97887.06;5010689;28;20029;-55
2022/06/16 05:55:34;;;;;;;9.63;3.72;;;;;;;32.12;44.10;97882.84;5012611;28;20057;-54
2022/06/16 05:58:01;;;;;;;14.00;4.57;;;;;;;30.87;47.48;97878.19;5010458;28;20527;-57
2022/06/16 06:00:27;;;;;;;11.95;4.15;;;;;;;28.51;53.35;97881.78;5010107;28;20704;-56
2022/06/16 06:02:55;;;;;;;10.10;4.15;;;;;;;28.56;54.43;97887.47;5010725;28;20021;-57
2022/06/16 06:05:21;;;;;;;16.58;4.63;;;;;;;26.26;63.94;97888.13;5008994;28;20041;-55
2022/06/16 06:18:47;;;;;;;15.43;4.78;;;;;;;26.55;68.08;97893.00;5011000;28;20091;-55
2022/06/16 06:21:13;;;;;;;13.90;4.75;;;;;;;28.15;64.28;97885.06;5008517;28;20042;-55
2022/06/16 06:23:38;;;;;;;15.77;4.50;;;;;;;28.96;55.75;97890.78;5009044;28;20648;-57
2022/06/16 06:26:03;;;;;;;15.10;4.57;;;;;;;31.40;49.72;97883.13;5007590;28;20036;-58
2022/06/16 06:28:29;;;;;;;16.13;5.30;;;;;;;32.84;44.73;97882.09;5008253;28;20082;-55
2022/06/16 06:30:54;;;;;;;10.80;4.13;;;;;;;32.19;44.55;97881.00;5009570;28;20079;-55
2022/06/16 06:33:19;;;;;;;15.00;4.60;;;;;;;33.11;42.22;97873.97;5009639;28;20153;-56
2022/06/16 06:35:46;;;;;;;15.07;4.65;;;;;;;33.70;42.19;97874.06;5010335;28;20079;-56
2022/06/16 06:38:12;;;;;;;11.02;4.10;;;;;;;34.88;39.67;97870.00;5009474;28;20049;-56
2022/06/16 06:40:39;;;;;;;11.82;4.32;;;;;;;35.06;39.06;97872.75;5007295;28;20115;-56
2022/06/16 06:43:05;;;;;;;10.43;4.18;;;;;;;36.15;36.65;97861.25;5009788;28;20036;-54
2022/06/16 06:45:30;;;;;;;13.20;4.30;;;;;;;37.30;35.07;97869.28;5008804;28;20067;-53
2022/06/16 06:47:56;;;;;;;10.13;3.70;;;;;;;35.61;36.99;97871.16;5008976;28;20066;-55
2022/06/16 06:50:34;;;;;;;9.68;3.88;;;;;;;38.22;33.47;97864.91;5008573;28;20677;-56
2022/06/16 06:53:00;;;;;;;8.88;3.90;;;;;;;38.08;33.32;97870.59;5009314;28;20033;-56
2022/06/16 06:55:25;;;;;;;10.65;3.90;;;;;;;38.40;33.43;97870.13;5010313;28;20034;-55
2022/06/16 06:57:52;;;;;;;10.68;3.67;;;;;;;37.87;33.44;97860.41;5009354;28;20053;-57
2022/06/16 07:00:19;;;;;;;9.98;4.13;;;;;;;36.34;35.15;97862.06;5009783;28;20122;-56
2022/06/16 07:02:45;;;;;;;8.50;3.85;;;;;;;36.83;35.31;97868.19;5007825;28;20029;-55
2022/06/16 07:05:11;;;;;;;7.85;3.72;;;;;;;36.80;35.27;97867.84;5008474;28;20026;-54
2022/06/16 07:07:37;;;;;;;7.55;3.80;;;;;;;36.61;35.46;97872.50;5010026;28;20038;-58
2022/06/16 07:10:05;;;;;;;9.82;4.45;;;;;;;36.90;33.69;97868.06;5007812;28;20018;-57
2022/06/16 07:12:31;;;;;;;9.77;3.70;;;;;;;39.16;31.69;97864.25;5008310;28;20033;-58
2022/06/16 07:14:56;;;;;;;8.57;3.92;;;;;;;36.96;34.09;97869.84;5008252;28;20022;-56
2022/06/16 07:17:23;;;;;;;10.40;3.78;;;;;;;38.11;33.69;97869.31;5007881;28;20053;-56
2022/06/16 07:19:49;;;;;;;15.65;4.38;;;;;;;39.21;32.58;97866.22;5008587;28;20056;-55
2022/06/16 07:22:15;;;;;;;10.82;3.97;;;;;;;37.85;33.46;97865.25;5007127;28;20086;-56
2022/06/16 07:24:40;;;;;;;11.32;3.80;;;;;;;38.69;32.06;97861.88;5008275;28;20060;-54
2022/06/16 07:27:07;;;;;;;13.35;4.47;;;;;;;36.81;33.60;97855.91;5008685;28;20079;-57
2022/06/16 07:29:32;;;;;;;9.32;3.83;;;;;;;36.35;34.61;97863.72;5007386;28;20116;-57
2022/06/16 07:31:58;;;;;;;9.43;4.10;;;;;;;36.56;35.30;97870.50;5007858;28;20044;-54
2022/06/16 07:34:25;;;;;;;11.27;4.20;;;;;;;38.23;32.60;97871.97;5009705;28;20125;-55
2022/06/16 07:36:50;;;;;;;10.00;4.18;;;;;;;36.23;33.77;97874.56;5011577;28;20049;-55
2022/06/16 07:39:16;;;;;;;14.93;4.97;;;;;;;37.23;31.68;97874.84;5010913;28;20064;-55
2022/06/16 07:41:41;;;;;;;11.77;4.10;;;;;;;38.23;30.06;97880.97;5013469;28;20034;-61
2022/06/16 07:44:10;;;;;;;16.27;4.50;;;;;;;37.09;31.85;97882.38;5012632;28;20044;-60
2022/06/16 07:46:36;;;;;;;11.00;3.95;;;;;;;35.61;32.34;97880.13;5001362;28;20124;-61
2022/06/16 07:49:07;;;;;;;12.63;4.60;;;;;;;37.39;30.95;97882.25;5015038;28;20494;-61
2022/06/16 07:51:33;;;;;;;;;;;;;;;35.37;32.32;97890.00;5013214;28;20076;-61
2022/06/16 07:53:59;;;;;;;11.55;4.30;;;;;;;35.40;32.76;97894.13;5013807;28;20362;-62
2022/06/16 07:56:24;;;;;;;17.17;4.47;;;;;;;37.46;31.79;97889.47;5013168;28;20187;-63
2022/06/16 07:58:50;;;;;;;10.00;4.25;;;;;;;37.83;31.69;97884.56;5011148;28;20376;-63
2022/06/16 08:01:16;;;;;;;17.08;4.70;;;;;;;38.30;30.92;97889.00;5011012;28;20084;-63
2022/06/16 08:03:42;;;;;;;11.68;4.13;;;;;;;37.81;30.60;97886.69;5013174;28;20139;-64
2022/06/16 08:06:11;;;;;;;13.68;4.13;;;;;;;39.23;29.49;97881.28;5012613;28;20033;-63
2022/06/16 08:08:38;;;;;;;11.05;4.40;;;;;;;33.54;35.16;97886.97;5012293;28;20018;-64
2022/06/16 08:11:04;;;;;;;11.30;4.35;;;;;;;38.44;30.16;97889.53;5012359;28;20530;-64
2022/06/16 08:13:30;;;;;;;12.88;4.10;;;;;;;37.55;31.11;97888.00;5012808;28;20060;-62
2022/06/16 08:15:55;;;;;;;9.43;3.75;;;;;;;37.88;30.94;97889.25;5011596;28;20061;-59
2022/06/16 08:18:23;;;;;;;12.02;4.00;;;;;;;36.46;31.58;97890.06;5013375;28;20258;-59
2022/06/16 08:20:50;;;;;;;10.02;3.72;;;;;;;36.60;32.24;97890.69;5010956;28;20050;-59
2022/06/16 08:23:15;;;;;;;12.18;4.10;;;;;;;38.32;30.71;97893.13;5012129;28;20022;-58
2022/06/16 08:25:43;;;;;;;10.75;3.92;;;;;;;36.53;32.01;97876.41;5012129;28;20080;-59
2022/06/16 08:28:12;;;;;;;10.98;4.10;;;;;;;37.04;30.84;97888.53;5012358;28;20025;-62
2022/06/16 08:30:41;;;;;;;17.23;4.13;;;;;;;36.72;32.69;97882.59;5010698;28;20037;-61
2022/06/16 08:33:09;;;;;;;10.90;4.25;;;;;;;35.31;33.35;97885.47;5013255;28;20115;-61
2022/06/16 08:35:36;;;;;;;12.05;4.30;;;;;;;34.61;34.21;97897.31;5008757;28;20037;-61
2022/06/16 08:38:02;;;;;;;13.45;4.45;;;;;;;35.82;32.71;97892.41;5011941;28;20091;-60
2022/06/16 08:40:28;;;;;;;11.32;4.22;;;;;;;35.47;33.84;97898.41;5015287;28;20123;-58
2022/06/16 08:42:56;;;;;;;12.43;4.80;;;;;;;34.82;34.33;97898.81;5019780;28;20035;-60
2022/06/16 08:45:30;;;;;;;11.95;4.20;;;;;;;37.67;30.48;97891.56;5009942;28;20683;-60
2022/06/16 08:48:29;;;;;;;16.40;4.50;;;;;;;36.36;32.29;97891.69;5011917;28;20880;-61
2022/06/16 08:51:02;;;;;;;10.73;4.00;;;;;;;38.52;29.85;97887.19;5009082;28;20084;-62
2022/06/16 08:53:34;;;;;;;11.88;4.20;;;;;;;36.20;33.07;97888.59;5010752;28;20033;-60
2022/06/16 08:56:03;;;;;;;9.18;4.00;;;;;;;36.07;32.57;97899.59;5009959;28;20045;-62
2022/06/16 08:58:44;;;;;;;12.45;4.57;;;;;;;36.64;33.35;97896.50;5011326;28;20025;-62
2022/06/16 09:01:22;;;;;;;14.55;4.28;;;;;;;36.83;33.48;97897.25;5011040;28;20042;-61
2022/06/16 09:04:00;;;;;;;10.00;4.22;;;;;;;36.82;33.70;97901.06;5008604;28;20030;-61
2022/06/16 09:06:59;;;;;;;18.73;4.10;;;;;;;35.90;34.49;97905.66;5012485;28;20045;-61
2022/06/16 09:12:45;;;;;;;11.43;3.67;;;;;;;38.62;27.06;97902.09;5008668;28;20191;-63
2022/06/16 09:15:33;;;;;;;9.55;3.67;;;;;;;39.13;27.67;97911.13;5009341;28;20028;-63
2022/06/16 09:18:07;;;;;;;10.20;3.88;;;;;;;38.11;28.50;97916.44;5009212;28;20510;-61
2022/06/16 09:20:54;;;;;;;9.73;3.38;;;;;;;37.83;27.77;97908.22;5009843;28;20565;-60
2022/06/16 09:23:42;;;;;;;11.48;3.97;;;;;;;37.95;27.35;97907.09;5010559;28;20026;-61
2022/06/16 09:26:24;;;;;;;9.82;3.40;;;;;;;38.52;26.30;97919.91;5005981;28;20042;-61
2022/06/16 09:29:00;;;;;;;11.43;3.63;;;;;;;38.92;26.72;97918.13;5010593;28;20033;-60
2022/06/16 09:31:57;;;;;;;9.25;3.45;;;;;;;38.38;28.10;97913.13;5009364;28;20805;-60
2022/06/16 09:34:32;;;;;;;10.18;3.70;;;;;;;39.00;27.02;97919.63;5007612;28;20450;-61
2022/06/16 09:37:05;;;;;;;10.05;3.20;;;;;;;38.93;26.53;97917.91;5011191;28;20443;-61
2022/06/16 09:39:46;;;;;;;9.48;3.70;;;;;;;38.30;26.40;97913.50;5009532;28;20036;-61
2022/06/16 09:42:35;;;;;;;10.52;3.90;;;;;;;39.40;26.09;97913.97;5005805;28;20045;-61
2022/06/16 09:45:14;;;;;;;9.82;3.38;;;;;;;37.59;27.46;97902.81;5009585;28;20030;-60
2022/06/16 09:47:46;;;;;;;12.20;3.70;;;;;;;39.08;26.52;97911.06;5010566;28;20643;-63
2022/06/16 09:50:31;;;;;;;12.93;4.20;;;;;;;39.42;26.68;97900.06;5008582;28;20951;-62
2022/06/16 09:53:38;;;;;;;9.02;3.28;;;;;;;36.81;27.07;97904.81;5009921;28;20326;-61
2022/06/16 09:56:07;;;;;;;11.32;3.78;;;;;;;39.00;26.64;97909.53;5009638;28;20045;-59
2022/06/16 09:58:35;;;;;;;11.77;3.60;;;;;;;38.60;27.17;97906.97;5007683;28;20037;-61
2022/06/16 10:01:12;;;;;;;10.00;3.60;;;;;;;37.78;27.02;97909.75;5006829;28;20156;-61
2022/06/16 10:03:46;;;;;;;11.20;3.70;;;;;;;38.85;25.21;97912.84;5008044;28;20762;-61
2022/06/16 10:06:24;;;;;;;9.02;3.35;;;;;;;37.05;27.52;97909.19;5008297;28;20475;-60
2022/06/16 10:09:03;;;;;;;10.60;3.70;;;;;;;37.22;28.15;97913.94;5008979;28;20435;-60
2022/06/16 10:11:49;;;;;;;12.45;3.80;;;;;;;35.99;30.22;97918.91;5009098;28;20232;-61
2022/06/16 10:14:21;;;;;;;13.35;4.00;;;;;;;36.57;29.23;97920.22;5008195;28;20167;-62
2022/06/16 10:17:05;;;;;;;10.43;3.92;;;;;;;35.15;31.54;97930.22;5007305;28;20045;-60
2022/06/16 10:19:34;;;;;;;13.55;4.05;;;;;;;34.84;30.08;97928.41;5009720;28;20036;-60
2022/06/16 10:22:01;;;;;;;12.45;3.90;;;;;;;33.76;33.54;97933.53;5006722;28;20034;-60
2022/06/16 10:24:41;;;;;;;15.20;4.43;;;;;;;32.95;32.30;97925.72;5007625;28;20071;-60
2022/06/16 10:27:10;;;;;;;14.38;4.18;;;;;;;32.40;33.84;97923.97;5023044;28;20037;-61
2022/06/16 10:29:35;;;;;;;15.85;4.28;;;;;;;33.38;32.86;97930.69;5010869;28;20038;-60
2022/06/16 10:32:01;;;;;;;15.23;4.35;;;;;;;33.44;34.60;97935.28;5007300;28;20041;-60
2022/06/16 10:34:37;;;;;;;12.75;4.05;;;;;;;33.54;33.71;97932.94;5006845;28;20038;-60
2022/06/16 10:37:19;;;;;;;11.73;3.90;;;;;;;33.56;33.52;97938.16;5009248;28;20052;-59
2022/06/16 10:39:58;;;;;;;16.05;4.28;;;;;;;32.52;35.12;97939.59;5011608;28;20040;-60
2022/06/16 10:42:29;;;;;;;17.75;5.07;;;;;;;33.68;33.28;97932.97;5009089;28;20561;-61
2022/06/16 10:44:59;;;;;;;12.15;3.88;;;;;;;34.05;32.55;97933.22;5009206;28;20033;-62
2022/06/16 10:47:52;;;;;;;15.52;4.13;;;;;;;34.18;32.64;97935.88;5010046;28;20040;-59
2022/06/16 10:50:22;;;;;;;11.98;3.67;;;;;;;35.09;31.07;97941.94;5001502;28;20038;-61
2022/06/16 10:52:59;;;;;;;13.75;3.92;;;;;;;35.78;29.54;97937.31;5008319;28;20029;-58
2022/06/16 10:55:29;;;;;;;14.02;4.07;;;;;;;35.96;29.67;97935.66;5006738;28;20046;-61
2022/06/16 10:58:04;;;;;;;20.63;4.25;;;;;;;36.27;27.96;97930.06;5008851;28;20116;-59
2022/06/16 11:00:32;;;;;;;12.82;3.90;;;;;;;34.73;29.34;97936.19;5008601;28;20041;-59
2022/06/16 11:03:03;;;;;;;14.40;4.20;;;;;;;35.20;30.55;97926.84;5008390;28;20026;-59
2022/06/16 11:05:33;;;;;;;12.32;3.88;;;;;;;35.80;28.90;97932.50;5008656;28;20683;-59
2022/06/16 11:08:08;;;;;;;15.52;4.20;;;;;;;36.61;28.93;97927.66;5008634;28;20033;-59
2022/06/16 11:10:40;;;;;;;14.10;4.15;;;;;;;36.22;29.74;97935.34;5006929;28;20034;-59
2022/06/16 11:13:12;;;;;;;15.80;4.50;;;;;;;36.48;27.29;97938.72;5011484;28;20025;-59
2022/06/16 11:15:41;;;;;;;14.88;4.13;;;;;;;35.55;29.78;97929.84;5012040;28;20057;-60
2022/06/16 11:18:12;;;;;;;15.68;4.30;;;;;;;35.81;28.49;97926.03;5012634;28;20192;-59
2022/06/16 11:20:41;;;;;;;12.50;3.83;;;;;;;36.17;28.48;97927.00;5011105;28;20080;-60
2022/06/16 11:23:21;;;;;;;18.38;4.95;;;;;;;36.17;28.59;97937.88;5011170;28;20033;-59
2022/06/16 11:25:55;;;;;;;17.13;4.22;;;;;;;35.46;29.13;97926.59;5010676;28;20055;-59
2022/06/16 11:28:23;;;;;;;17.65;5.20;;;;;;;35.76;30.35;97931.31;5009904;28;20029;-59
2022/06/16 11:30:49;;;;;;;11.98;4.03;;;;;;;34.71;30.86;97932.88;5007112;28;20041;-59
2022/06/16 11:36:44;;;;;;;15.40;4.65;;;;;;;34.09;31.96;97945.28;5013458;28;20343;-59
2022/06/16 11:39:37;;;;;;;15.73;4.53;;;;;;;34.69;30.21;97929.56;5011451;28;20021;-59
2022/06/16 11:42:04;;;;;;;16.75;4.28;;;;;;;34.25;31.95;97925.84;5011865;28;20080;-58
2022/06/16 11:44:51;;;;;;;15.43;4.53;;;;;;;36.40;29.96;97937.19;5011385;28;20181;-59
2022/06/16 11:47:22;;;;;;;14.13;4.55;;;;;;;35.74;30.48;97941.56;5009944;28;20053;-59
2022/06/16 11:49:59;;;;;;;15.95;4.45;;;;;;;34.21;29.91;97940.03;5012287;28;20041;-59
2022/06/16 11:52:42;;;;;;;13.88;4.20;;;;;;;35.63;29.49;97939.56;5011777;28;20033;-59
2022/06/16 11:55:20;;;;;;;15.35;4.47;;;;;;;35.07;29.91;97936.75;5008708;28;20030;-59
2022/06/16 11:58:21;;;;;;;13.35;4.20;;;;;;;35.31;29.14;97939.69;5010575;28;20133;-59
2022/06/16 12:01:06;;;;;;;15.75;4.47;;;;;;;34.48;30.16;97936.16;5010043;28;20049;-59
2022/06/16 12:03:49;;;;;;;13.00;4.18;;;;;;;35.47;29.26;97938.28;5011696;28;20104;-58
2022/06/16 12:06:33;;;;;;;15.73;4.35;;;;;;;35.44;31.73;97939.56;5012567;28;20042;-61